createdAt,value
2022-09-18T00:04:15.982Z,7.14
2022-09-18T00:09:18.867Z,7.19
2022-09-18T00:14:24.449Z,7.14
2022-09-18T00:19:27.421Z,7.25
2022-09-18T00:24:30.597Z,7.32
2022-09-18T00:29:34.836Z,7.23
2022-09-18T00:34:38.999Z,7.22
2022-09-18T00:39:42.129Z,7.19
2022-09-18T00:44:48.929Z,7.28
2022-09-18T00:49:57.801Z,7.25
2022-09-18T00:55:05.882Z,7.39
2022-09-18T01:00:14.408Z,7.29
2022-09-18T01:05:23.627Z,7.25
2022-09-18T01:10:41.859Z,7.46
2022-09-18T01:15:52.558Z,7.47
2022-09-18T01:21:10.580Z,7.43
2022-09-18T01:26:29.079Z,7.34
2022-09-18T01:31:38.733Z,7.36
2022-09-18T01:36:46.821Z,7.32
2022-09-18T01:41:52.022Z,7.40
2022-09-18T01:47:00.070Z,7.41
2022-09-18T01:52:11.517Z,7.44
2022-09-18T01:57:23.664Z,7.37
2022-09-18T02:02:36.270Z,7.31
2022-09-18T02:07:47.341Z,7.31
2022-09-18T02:12:55.144Z,7.17
2022-09-18T02:18:05.133Z,7.30
2022-09-18T02:23:17.926Z,7.24
2022-09-18T02:28:23.953Z,7.13
2022-09-18T02:33:30.410Z,7.21
2022-09-18T02:38:40.381Z,7.13
2022-09-18T02:43:54.785Z,7.08
2022-09-18T02:49:08.155Z,7.26
2022-09-18T02:54:16.197Z,7.19
2022-09-18T02:59:25.790Z,7.17
2022-09-18T03:04:33.941Z,7.08
2022-09-18T03:09:49.194Z,7.16
2022-09-18T03:14:52.513Z,7.14
2022-09-18T03:19:56.800Z,7.09
2022-09-18T03:24:59.783Z,7.07
2022-09-18T03:30:03.183Z,7.06
2022-09-18T03:35:10.838Z,7.06
2022-09-18T03:40:14.193Z,7.13
2022-09-18T03:45:18.600Z,7.10
2022-09-18T03:50:23.100Z,6.97
2022-09-18T03:55:26.052Z,7.02
2022-09-18T04:00:47.404Z,7.08
2022-09-18T04:06:00.669Z,7.01
2022-09-18T04:11:32.389Z,6.93
2022-09-18T04:16:35.678Z,6.90
2022-09-18T04:21:40.015Z,6.93
2022-09-18T04:26:42.937Z,6.86
2022-09-18T04:31:45.995Z,6.99
2022-09-18T04:36:54.203Z,6.88
2022-09-18T04:41:57.793Z,6.95
2022-09-18T04:47:00.779Z,6.80
2022-09-18T04:52:05.591Z,6.95
2022-09-18T04:57:08.539Z,6.89
2022-09-18T05:02:12.489Z,6.80
2022-09-18T05:07:16.880Z,6.91
2022-09-18T05:12:21.641Z,6.87
2022-09-18T05:17:25.235Z,6.69
2022-09-18T05:22:50.318Z,6.80
2022-09-18T05:27:58.923Z,6.81
2022-09-18T05:33:07.245Z,6.89
2022-09-18T05:38:15.455Z,6.97
2022-09-18T05:43:20.853Z,7.08
2022-09-18T05:48:25.683Z,7.12
2022-09-18T05:53:30.248Z,7.21
2022-09-18T05:59:02.465Z,7.18
2022-09-18T06:04:06.358Z,7.09
2022-09-18T06:09:22.688Z,7.13
2022-09-18T06:14:25.919Z,7.14
2022-09-18T06:19:29.233Z,7.46
2022-09-18T06:24:35.391Z,8.55
2022-09-18T06:29:53.150Z,9.04
2022-09-18T06:35:08.461Z,8.85
2022-09-18T06:40:13.505Z,8.40
2022-09-18T06:45:51.135Z,8.23
2022-09-18T06:50:55.100Z,8.49
2022-09-18T06:56:03.312Z,9.06
2022-09-18T07:01:10.700Z,8.91
2022-09-18T07:06:19.574Z,8.85
2022-09-18T07:11:26.513Z,8.73
2022-09-18T07:16:29.530Z,8.49
2022-09-18T07:21:32.783Z,8.21
2022-09-18T07:26:37.387Z,8.18
2022-09-18T07:31:41.730Z,8.27
2022-09-18T07:36:45.701Z,8.32
2022-09-18T07:41:52.457Z,8.38
2022-09-18T07:46:55.641Z,8.47
2022-09-18T07:52:00.040Z,9.54
2022-09-18T07:57:05.752Z,9.95
2022-09-18T08:02:22.196Z,10.08
2022-09-18T08:07:26.004Z,10.27
2022-09-18T08:12:31.947Z,10.01
2022-09-18T08:17:46.601Z,10.55
2022-09-18T08:23:08.834Z,11.22
2022-09-18T08:28:16.909Z,11.45
2022-09-18T08:33:26.857Z,11.53
2022-09-18T08:38:30.096Z,12.20
2022-09-18T08:44:02.045Z,11.29
2022-09-18T08:49:25.841Z,11.56
2022-09-18T08:54:43.796Z,11.64
2022-09-18T09:00:13.588Z,11.22
2022-09-18T09:05:24.120Z,10.89
2022-09-18T09:10:42.144Z,10.49
2022-09-18T09:15:55.298Z,10.82
2022-09-18T09:21:09.933Z,11.44
2022-09-18T09:26:19.287Z,10.59
2022-09-18T09:31:51.354Z,10.62
2022-09-18T09:37:23.829Z,10.51
2022-09-18T09:42:32.589Z,9.99
2022-09-18T09:47:43.936Z,10.80
2022-09-18T09:52:48.344Z,11.87
2022-09-18T09:58:04.670Z,12.20
2022-09-18T10:03:30.234Z,12.89
2022-09-18T10:08:38.413Z,12.70
2022-09-18T10:13:49.899Z,11.57
2022-09-18T10:18:54.417Z,11.19
2022-09-18T10:24:07.027Z,10.72
2022-09-18T10:29:11.185Z,11.42
2022-09-18T10:34:36.150Z,12.35
2022-09-18T10:39:49.897Z,12.80
2022-09-18T10:45:01.427Z,12.37
2022-09-18T10:50:20.042Z,11.95
2022-09-18T10:55:27.486Z,11.92
2022-09-18T11:00:43.135Z,12.20
2022-09-18T11:05:54.580Z,12.73
2022-09-18T11:11:03.162Z,13.08
2022-09-18T11:16:10.077Z,12.98
2022-09-18T11:21:14.505Z,12.44
2022-09-18T11:26:28.175Z,12.84
2022-09-18T11:31:45.258Z,13.03
2022-09-18T11:36:59.663Z,13.05
2022-09-18T11:42:14.318Z,13.21
2022-09-18T11:47:37.667Z,12.52
2022-09-18T11:52:45.312Z,12.40
2022-09-18T11:57:54.542Z,12.36
2022-09-18T12:03:03.493Z,12.64
2022-09-18T12:08:17.117Z,13.17
2022-09-18T12:13:47.065Z,13.31
2022-09-18T12:18:56.378Z,13.77
2022-09-18T12:24:01.234Z,13.71
2022-09-18T12:29:19.570Z,13.02
2022-09-18T12:34:29.922Z,13.17
2022-09-18T12:39:51.238Z,13.43
2022-09-18T12:45:20.845Z,12.58
2022-09-18T12:50:39.674Z,12.66
2022-09-18T12:55:58.925Z,12.30
2022-09-18T13:01:10.787Z,12.29
2022-09-18T13:06:19.139Z,12.73
2022-09-18T13:11:30.325Z,12.00
2022-09-18T13:16:38.621Z,12.30
2022-09-18T13:21:44.926Z,12.60
2022-09-18T13:26:51.623Z,12.83
2022-09-18T13:31:55.111Z,13.22
2022-09-18T13:37:07.212Z,13.18
2022-09-18T13:42:12.682Z,13.33
2022-09-18T13:47:18.322Z,12.89
2022-09-18T13:52:43.136Z,12.89
2022-09-18T13:57:48.481Z,12.42
2022-09-18T14:02:52.097Z,12.17
2022-09-18T14:08:07.774Z,12.05
2022-09-18T14:13:51.478Z,12.02
2022-09-18T14:19:03.408Z,11.88
2022-09-18T14:24:36.492Z,11.31
2022-09-18T14:29:39.675Z,11.27
2022-09-18T14:34:45.066Z,10.98
2022-09-18T14:39:48.282Z,10.46
2022-09-18T14:44:54.266Z,10.05
2022-09-18T14:49:58.569Z,9.82
2022-09-18T14:55:10.762Z,9.72
2022-09-18T15:00:19.266Z,9.40
2022-09-18T15:05:24.431Z,9.06
2022-09-18T15:10:28.438Z,9.32
2022-09-18T15:15:34.187Z,9.22
2022-09-18T15:20:38.481Z,9.23
2022-09-18T15:25:44.534Z,9.22
2022-09-18T15:30:48.199Z,9.31
2022-09-18T15:35:55.263Z,8.74
2022-09-18T15:40:58.441Z,8.98
2022-09-18T15:46:03.995Z,8.88
2022-09-18T15:51:15.440Z,9.02
2022-09-18T15:56:22.048Z,8.97
2022-09-18T16:01:30.800Z,9.03
2022-09-18T16:06:42.679Z,8.88
2022-09-18T16:11:47.375Z,8.83
2022-09-18T16:16:50.547Z,8.85
2022-09-18T16:21:54.851Z,8.78
2022-09-18T16:27:06.252Z,8.77
2022-09-18T16:32:11.592Z,8.75
2022-09-18T16:37:17.451Z,8.68
2022-09-18T16:42:20.532Z,8.66
2022-09-18T16:47:25.746Z,8.69
2022-09-18T16:52:30.041Z,8.54
2022-09-18T16:57:32.967Z,8.50
2022-09-18T17:02:37.069Z,8.37
2022-09-18T17:07:43.646Z,8.45
2022-09-18T17:12:46.644Z,8.37
2022-09-18T17:17:49.647Z,8.27
2022-09-18T17:22:53.987Z,8.27
2022-09-18T17:27:56.927Z,8.13
2022-09-18T17:32:59.896Z,8.07
2022-09-18T17:38:04.284Z,8.07
2022-09-18T17:43:07.190Z,8.15
2022-09-18T17:48:10.208Z,8.19
2022-09-18T17:53:14.512Z,8.10
2022-09-18T17:58:17.725Z,7.92
2022-09-18T18:03:20.706Z,7.81
2022-09-18T18:08:26.411Z,7.69
2022-09-18T18:13:29.580Z,7.54
2022-09-18T18:18:32.554Z,7.57
2022-09-18T18:23:38.467Z,7.68
2022-09-18T18:28:42.747Z,7.65
2022-09-18T18:33:45.737Z,7.63
2022-09-18T18:38:52.084Z,7.35
2022-09-18T18:43:57.811Z,7.37
2022-09-18T18:49:02.801Z,7.38
2022-09-18T18:54:07.729Z,7.40
2022-09-18T18:59:14.483Z,7.42
2022-09-18T19:04:19.861Z,7.31
2022-09-18T19:09:26.400Z,7.33
2022-09-18T19:14:33.323Z,7.25
2022-09-18T19:19:36.252Z,7.25
2022-09-18T19:24:40.564Z,7.14
2022-09-18T19:29:43.493Z,7.09
2022-09-18T19:34:46.447Z,7.07
2022-09-18T19:39:50.760Z,7.09
2022-09-18T19:44:58.988Z,6.88
2022-09-18T19:50:05.386Z,6.95
2022-09-18T19:55:15.958Z,6.82
2022-09-18T20:00:19.182Z,6.93
2022-09-18T20:05:22.122Z,6.93
2022-09-18T20:10:26.413Z,7.00
2022-09-18T20:15:29.470Z,6.88
2022-09-18T20:20:35.000Z,6.69
2022-09-18T20:25:40.161Z,6.80
2022-09-18T20:30:43.078Z,6.67
2022-09-18T20:35:49.510Z,6.74
2022-09-18T20:41:03.744Z,6.69
2022-09-18T20:46:16.286Z,6.58
2022-09-18T20:51:19.802Z,6.66
2022-09-18T20:56:25.492Z,6.64
2022-09-18T21:01:29.751Z,6.53
2022-09-18T21:06:34.547Z,6.49
2022-09-18T21:11:41.568Z,6.50
2022-09-18T21:16:45.042Z,6.42
2022-09-18T21:21:49.367Z,6.33
2022-09-18T21:26:53.753Z,6.52
2022-09-18T21:31:58.812Z,6.47
2022-09-18T21:37:03.695Z,6.45
2022-09-18T21:42:09.557Z,6.45
2022-09-18T21:47:13.975Z,6.38
2022-09-18T21:52:17.285Z,6.51
2022-09-18T21:57:21.783Z,6.47
2022-09-18T22:02:24.834Z,6.50
2022-09-18T22:07:28.551Z,6.53
2022-09-18T22:12:32.837Z,6.63
2022-09-18T22:17:35.722Z,6.73
2022-09-18T22:22:38.631Z,6.73
2022-09-18T22:27:43.753Z,6.75
2022-09-18T22:32:46.675Z,6.76
2022-09-18T22:37:49.599Z,6.88
2022-09-18T22:42:53.900Z,6.90
2022-09-18T22:47:56.806Z,6.94
2022-09-18T22:52:59.719Z,6.81
2022-09-18T22:58:04.565Z,6.98
2022-09-18T23:03:07.914Z,7.04
2022-09-18T23:08:11.498Z,6.89
2022-09-18T23:13:16.203Z,6.91
2022-09-18T23:18:19.186Z,6.85
2022-09-18T23:23:22.077Z,6.82
2022-09-18T23:28:26.378Z,6.74
2022-09-18T23:33:29.617Z,6.75
2022-09-18T23:38:32.543Z,6.75
2022-09-18T23:43:37.375Z,6.75
2022-09-18T23:48:40.404Z,6.67
2022-09-18T23:53:43.305Z,6.68
2022-09-18T23:58:47.558Z,6.64
